Time;durP1;ratioP1;P1;durP2;ratioP2;P2;SDS_P1;SDS_P2;PMS_P1;PMS_P2;Temp;Humidity;BMP_temperature;BMP_pressure;BME280_temperature;BME280_humidity;BME280_pressure;Samples;Min_cycle;Max_cycle;Signal;HPM_P1;HPM_P2
2021/12/19 00:01:01;;;;;;;48.93;27.43;;;3.60;99.90;;;;;;4935153;29;20699;-67
2021/12/19 00:08:50;;;;;;;53.23;28.37;;;3.70;99.90;;;;;;4934430;29;20439;-67
2021/12/19 00:11:18;;;;;;;44.93;26.47;;;3.70;99.90;;;;;;4900617;29;1017156;-67
2021/12/19 00:13:44;;;;;;;53.53;28.03;;;3.80;99.90;;;;;;4935837;29;20488;-67
2021/12/19 00:16:11;;;;;;;46.07;25.90;;;3.90;99.90;;;;;;4935511;29;20469;-67
2021/12/19 00:18:37;;;;;;;44.70;24.87;;;3.90;99.90;;;;;;4935904;29;20428;-67
2021/12/19 00:21:03;;;;;;;55.53;28.50;;;3.90;99.90;;;;;;4935650;29;20441;-66
2021/12/19 00:23:29;;;;;;;43.97;27.43;;;3.80;99.90;;;;;;4935279;29;20329;-67
2021/12/19 00:25:55;;;;;;;47.00;25.77;;;3.80;99.90;;;;;;4935383;29;20857;-66
2021/12/19 00:28:21;;;;;;;42.33;26.90;;;3.80;99.90;;;;;;4935496;29;20516;-66
2021/12/19 00:30:46;;;;;;;51.50;27.57;;;3.90;99.90;;;;;;4935514;29;20193;-69
2021/12/19 00:33:12;;;;;;;55.63;28.13;;;3.80;99.90;;;;;;4935483;29;20244;-66
2021/12/19 00:35:38;;;;;;;51.03;28.53;;;3.80;99.90;;;;;;4934970;29;20206;-66
2021/12/19 00:38:04;;;;;;;54.80;28.93;;;3.70;99.90;;;;;;4935580;29;20181;-66
2021/12/19 00:40:32;;;;;;;52.47;27.53;;;3.70;99.90;;;;;;4935232;29;20799;-66
2021/12/19 00:43:07;;;;;;;49.37;28.00;;;3.80;99.90;;;;;;4935329;29;20426;-66
2021/12/19 00:45:35;;;;;;;51.33;27.43;;;3.70;99.90;;;;;;4935052;29;20488;-67
2021/12/19 00:48:05;;;;;;;49.20;27.00;;;3.80;99.90;;;;;;4935186;29;20829;-66
2021/12/19 00:50:32;;;;;;;61.10;31.37;;;3.70;99.90;;;;;;4935157;29;20860;-67
2021/12/19 00:52:59;;;;;;;60.20;29.07;;;3.60;99.90;;;;;;4935166;29;20449;-66
2021/12/19 00:55:27;;;;;;;47.90;25.63;;;3.40;99.90;;;;;;4934767;29;20461;-66
2021/12/19 00:57:54;;;;;;;46.83;26.87;;;3.20;99.90;;;;;;4935216;29;20422;-69
2021/12/19 01:00:25;;;;;;;42.30;24.70;;;3.20;99.90;;;;;;4935072;29;20912;-66
2021/12/19 01:02:53;;;;;;;44.60;25.50;;;3.30;99.90;;;;;;4934914;29;20873;-67
2021/12/19 01:05:19;;;;;;;54.97;27.53;;;3.40;99.90;;;;;;4934545;29;20512;-67
2021/12/19 01:07:45;;;;;;;51.33;27.63;;;3.50;99.90;;;;;;4934827;29;20436;-67
2021/12/19 01:10:11;;;;;;;49.90;26.20;;;3.60;99.90;;;;;;4934661;29;20421;-67
2021/12/19 01:12:38;;;;;;;52.70;26.47;;;3.60;99.90;;;;;;4934798;29;20656;-66
2021/12/19 01:15:07;;;;;;;53.10;25.30;;;3.60;99.90;;;;;;4934385;29;20553;-67
2021/12/19 01:17:32;;;;;;;53.63;25.20;;;3.50;99.90;;;;;;4934690;29;20904;-66
2021/12/19 01:19:58;;;;;;;52.93;30.77;;;3.50;99.90;;;;;;4934719;29;20463;-66
2021/12/19 01:22:24;;;;;;;51.83;25.73;;;3.60;99.90;;;;;;4934634;29;20690;-66
2021/12/19 01:24:49;;;;;;;54.80;29.47;;;3.60;99.90;;;;;;4934622;29;20546;-66
2021/12/19 01:27:15;;;;;;;54.20;26.70;;;3.70;99.90;;;;;;4934347;29;20696;-66
2021/12/19 01:29:40;;;;;;;59.67;28.10;;;3.80;99.90;;;;;;4934599;29;20246;-66
2021/12/19 01:32:06;;;;;;;77.77;30.93;;;3.70;99.90;;;;;;4934504;29;20197;-66
2021/12/19 01:34:32;;;;;;;61.03;30.70;;;3.60;99.90;;;;;;4934565;29;20675;-66
2021/12/19 01:36:57;;;;;;;59.70;28.30;;;3.50;99.90;;;;;;4934350;29;20465;-66
2021/12/19 01:39:23;;;;;;;65.43;31.67;;;3.50;99.90;;;;;;4934560;29;20202;-66
2021/12/19 01:41:51;;;;;;;50.90;26.60;;;3.50;99.90;;;;;;4934411;29;20260;-66
2021/12/19 01:44:18;;;;;;;63.53;27.30;;;3.60;99.90;;;;;;4934488;29;20170;-66
2021/12/19 01:46:46;;;;;;;56.10;24.60;;;3.50;99.90;;;;;;4934132;29;20777;-67
2021/12/19 01:49:16;;;;;;;39.40;21.70;;;3.60;99.90;;;;;;4934410;29;20425;-66
2021/12/19 01:51:42;;;;;;;50.17;23.00;;;3.70;99.90;;;;;;4934441;29;20456;-66
2021/12/19 01:54:08;;;;;;;51.10;24.93;;;3.70;99.90;;;;;;4934402;29;20792;-66
2021/12/19 01:56:33;;;;;;;52.80;24.33;;;3.70;99.90;;;;;;4933944;29;20209;-66
2021/12/19 01:58:59;;;;;;;55.10;23.87;;;3.60;99.90;;;;;;4934293;29;20181;-67
2021/12/19 02:01:25;;;;;;;45.80;22.70;;;3.60;99.90;;;;;;4934263;29;20665;-67
2021/12/19 02:03:51;;;;;;;47.87;22.10;;;3.70;99.90;;;;;;4934253;29;20421;-67
2021/12/19 02:06:16;;;;;;;50.03;23.53;;;3.50;99.90;;;;;;4933974;29;20181;-66
2021/12/19 02:08:42;;;;;;;51.47;21.60;;;3.60;99.90;;;;;;4934254;29;20177;-67
2021/12/19 02:11:07;;;;;;;43.80;20.40;;;3.50;99.90;;;;;;4934579;29;20209;-66
2021/12/19 02:13:33;;;;;;;52.03;22.83;;;3.50;99.90;;;;;;4934105;29;20178;-66
2021/12/19 02:16:00;;;;;;;43.33;21.87;;;3.40;99.90;;;;;;4933998;29;20202;-66
2021/12/19 02:18:26;;;;;;;48.07;22.17;;;3.50;99.90;;;;;;4934901;29;20799;-66
2021/12/19 02:20:55;;;;;;;40.87;21.87;;;3.40;99.90;;;;;;4937754;29;20488;-66
2021/12/19 02:23:24;;;;;;;38.80;20.57;;;3.40;99.90;;;;;;4937809;29;20178;-66
2021/12/19 02:25:51;;;;;;;32.97;17.97;;;3.40;99.90;;;;;;4937435;29;20425;-67
2021/12/19 02:28:17;;;;;;;33.60;18.60;;;3.60;99.90;;;;;;4937687;29;20480;-67
2021/12/19 02:30:43;;;;;;;32.13;17.80;;;3.60;99.90;;;;;;4937714;29;20487;-66
2021/12/19 02:33:14;;;;;;;31.90;19.57;;;3.70;99.90;;;;;;4937554;29;20421;-66
2021/12/19 02:35:42;;;;;;;28.17;16.83;;;3.60;99.90;;;;;;4937234;29;20527;-66
2021/12/19 02:39:06;;;;;;;30.60;17.63;;;3.60;99.90;;;;;;4937606;29;20452;-66
2021/12/19 02:49:23;;;;;;;33.80;17.93;;;3.40;99.90;;;;;;4937373;29;20432;-66
2021/12/19 02:51:51;;;;;;;30.40;16.90;;;3.30;99.90;;;;;;4937271;29;20441;-66
2021/12/19 02:54:17;;;;;;;36.53;17.73;;;3.30;99.90;;;;;;4937261;29;20429;-66
2021/12/19 02:56:42;;;;;;;37.50;18.23;;;3.40;99.90;;;;;;4936790;29;20464;-66
2021/12/19 02:59:08;;;;;;;33.87;20.07;;;3.30;99.90;;;;;;4937122;29;20422;-66
2021/12/19 03:01:33;;;;;;;36.63;21.03;;;3.10;99.90;;;;;;4936941;29;20202;-66
2021/12/19 03:03:59;;;;;;;33.97;18.73;;;3.00;99.90;;;;;;4937122;29;20224;-66
2021/12/19 03:06:24;;;;;;;39.93;19.40;;;3.10;99.90;;;;;;4937082;29;20181;-66
2021/12/19 03:08:51;;;;;;;43.00;21.37;;;3.10;99.90;;;;;;4937014;29;20214;-66
2021/12/19 03:19:41;;;;;;;28.37;15.07;;;3.30;99.90;;;;;;4896617;29;20437;-67
2021/12/19 03:22:06;;;;;;;33.67;18.83;;;3.10;99.90;;;;;;4896542;29;20447;-66
2021/12/19 03:24:32;;;;;;;35.57;17.17;;;3.10;99.90;;;;;;4915046;29;20193;-66
2021/12/19 03:26:58;;;;;;;26.13;15.53;;;3.20;99.90;;;;;;4936510;29;20186;-66
2021/12/19 03:29:23;;;;;;;25.80;14.20;;;3.20;99.90;;;;;;4936581;29;20181;-69
2021/12/19 03:31:49;;;;;;;22.93;13.83;;;3.40;99.90;;;;;;4936522;29;20208;-66
2021/12/19 03:34:14;;;;;;;29.23;15.03;;;3.40;99.90;;;;;;4936528;29;20181;-66
2021/12/19 03:36:40;;;;;;;27.30;15.83;;;3.40;99.90;;;;;;4936301;29;20247;-66
2021/12/19 03:39:14;;;;;;;30.57;17.23;;;3.40;99.90;;;;;;4936592;29;20174;-67
2021/12/19 03:41:41;;;;;;;25.50;15.23;;;3.40;99.90;;;;;;4936371;29;20185;-66
2021/12/19 03:44:07;;;;;;;29.10;14.90;;;3.50;99.90;;;;;;4936495;29;20885;-66
2021/12/19 03:46:33;;;;;;;24.93;15.30;;;3.40;99.90;;;;;;4936158;29;20488;-66
2021/12/19 03:48:59;;;;;;;27.37;14.37;;;3.30;99.90;;;;;;4936302;29;20218;-66
2021/12/19 03:51:25;;;;;;;30.87;15.53;;;3.20;99.90;;;;;;4936086;29;20449;-66
2021/12/19 03:53:51;;;;;;;33.90;17.30;;;3.30;99.90;;;;;;4936232;29;20510;-66
2021/12/19 03:56:16;;;;;;;34.33;17.43;;;3.40;99.90;;;;;;4935829;29;20548;-66
2021/12/19 03:58:42;;;;;;;28.10;13.43;;;3.40;99.90;;;;;;4936170;29;20186;-66
2021/12/19 04:01:09;;;;;;;29.77;14.20;;;3.20;99.90;;;;;;4936030;29;20244;-67
2021/12/19 04:03:35;;;;;;;28.07;16.00;;;3.30;99.90;;;;;;4935974;29;20172;-66
2021/12/19 04:06:01;;;;;;;28.83;14.90;;;3.30;99.90;;;;;;4935691;29;20429;-66
2021/12/19 04:08:26;;;;;;;29.20;16.63;;;3.30;99.90;;;;;;4935904;29;20695;-66
2021/12/19 04:10:53;;;;;;;36.43;16.20;;;3.30;99.90;;;;;;4935666;29;20758;-66
2021/12/19 04:13:19;;;;;;;31.40;16.40;;;3.20;99.90;;;;;;4935872;29;20652;-66
2021/12/19 04:15:47;;;;;;;33.03;17.57;;;3.10;99.90;;;;;;4935524;29;20461;-66
2021/12/19 04:18:14;;;;;;;29.87;15.47;;;3.10;99.90;;;;;;4936342;29;20448;-67
2021/12/19 04:20:39;;;;;;;30.00;16.40;;;3.20;99.90;;;;;;4935543;29;20932;-67
2021/12/19 04:23:05;;;;;;;26.97;14.90;;;3.20;99.90;;;;;;4935857;29;20428;-66
2021/12/19 04:25:31;;;;;;;28.57;14.97;;;3.30;99.90;;;;;;4935303;29;20184;-66
2021/12/19 04:27:57;;;;;;;32.83;16.60;;;3.40;99.90;;;;;;4935507;29;20655;-67
2021/12/19 04:30:25;;;;;;;26.73;15.60;;;3.50;99.90;;;;;;4935417;29;20429;-66
2021/12/19 04:33:01;;;;;;;29.73;16.63;;;3.50;99.90;;;;;;4935501;29;20176;-67
2021/12/19 04:35:31;;;;;;;26.87;15.37;;;3.40;99.90;;;;;;4935381;29;20416;-67
2021/12/19 04:38:48;;;;;;;32.63;16.20;;;3.40;99.90;;;;;;4935638;29;20939;-67
2021/12/19 04:57:25;;;;;;;34.83;15.30;;;2.70;99.90;;;;;;4934720;29;20831;-67
2021/12/19 04:59:55;;;;;;;27.20;15.83;;;2.60;99.90;;;;;;4935439;29;20848;-67
2021/12/19 05:16:02;;;;;;;29.87;14.90;;;2.70;99.90;;;;;;4934479;29;20468;-67
2021/12/19 05:18:31;;;;;;;25.17;15.17;;;2.50;99.90;;;;;;4934738;29;20843;-67
2021/12/19 05:21:05;;;;;;;27.03;13.97;;;2.50;99.90;;;;;;4934591;29;20520;-67
2021/12/19 05:25:58;;;;;;;31.87;15.50;;;2.50;99.90;;;;;;4934546;29;20943;-67
2021/12/19 05:28:24;;;;;;;21.20;12.50;;;2.50;99.90;;;;;;4934596;29;20432;-67
2021/12/19 05:30:49;;;;;;;24.73;14.90;;;2.60;99.90;;;;;;4934934;29;20437;-67
2021/12/19 05:33:15;;;;;;;25.20;13.10;;;2.50;99.90;;;;;;4934635;29;20551;-67
2021/12/19 05:46:29;;;;;;;22.93;11.90;;;2.40;99.90;;;;;;4934262;29;20598;-67
2021/12/19 05:48:55;;;;;;;22.87;12.17;;;2.40;99.90;;;;;;4934469;29;20790;-68
2021/12/19 05:51:21;;;;;;;24.47;12.30;;;2.30;99.90;;;;;;4934383;29;20536;-69
2021/12/19 05:53:47;;;;;;;23.30;11.70;;;2.30;99.90;;;;;;4935666;29;20189;-69
2021/12/19 05:56:12;;;;;;;23.80;12.47;;;2.30;99.90;;;;;;4937927;29;20283;-69
2021/12/19 05:58:38;;;;;;;22.80;12.83;;;2.40;99.90;;;;;;4938673;29;20180;-69
2021/12/19 06:01:04;;;;;;;21.00;12.10;;;2.30;99.90;;;;;;4938182;29;20194;-68
2021/12/19 06:03:30;;;;;;;26.47;11.70;;;2.40;99.90;;;;;;4938374;29;20491;-68
2021/12/19 06:05:55;;;;;;;18.70;10.37;;;2.40;99.90;;;;;;4937783;29;20939;-68
2021/12/19 06:08:21;;;;;;;18.17;10.53;;;2.40;99.90;;;;;;4938190;29;20184;-68
2021/12/19 06:10:47;;;;;;;26.90;11.50;;;2.30;99.90;;;;;;4937821;29;20268;-68
2021/12/19 06:13:12;;;;;;;20.73;10.50;;;2.30;99.90;;;;;;4937928;29;20182;-68
2021/12/19 06:15:38;;;;;;;21.90;11.80;;;2.10;99.90;;;;;;4937722;29;20625;-68
2021/12/19 06:18:04;;;;;;;21.07;10.83;;;2.10;99.90;;;;;;4937956;29;20173;-68
2021/12/19 06:20:31;;;;;;;18.07;10.63;;;2.10;99.90;;;;;;4937752;29;20170;-67
2021/12/19 06:22:58;;;;;;;17.50;10.50;;;2.20;99.90;;;;;;4937912;29;20865;-68
2021/12/19 06:25:23;;;;;;;20.03;9.87;;;2.10;99.90;;;;;;4937475;29;20425;-68
2021/12/19 06:27:49;;;;;;;16.80;10.27;;;2.10;99.90;;;;;;4937621;29;20480;-66
2021/12/19 06:30:14;;;;;;;15.03;10.03;;;2.10;99.90;;;;;;4937821;29;20186;-68
2021/12/19 06:32:41;;;;;;;20.33;11.20;;;2.20;99.90;;;;;;4937727;29;20178;-68
2021/12/19 06:35:17;;;;;;;17.20;9.10;;;2.20;99.90;;;;;;4937322;29;20170;-68
2021/12/19 06:37:43;;;;;;;17.83;10.63;;;2.10;99.90;;;;;;4937591;29;20429;-68
2021/12/19 06:40:12;;;;;;;18.83;11.03;;;1.90;99.90;;;;;;4937356;29;20781;-69
2021/12/19 06:42:38;;;;;;;18.50;9.77;;;1.90;99.90;;;;;;4937424;29;20535;-68
2021/12/19 06:45:05;;;;;;;14.43;9.03;;;2.00;99.90;;;;;;4937414;29;20432;-68
2021/12/19 06:47:31;;;;;;;14.60;9.07;;;1.90;99.90;;;;;;4937373;29;20421;-68
2021/12/19 06:49:56;;;;;;;13.90;8.87;;;2.00;99.90;;;;;;4937382;29;20461;-69
2021/12/19 06:52:22;;;;;;;11.10;7.10;;;2.00;99.90;;;;;;4937209;29;20201;-68
2021/12/19 06:54:47;;;;;;;13.20;7.97;;;1.90;99.90;;;;;;4937505;29;20679;-68
2021/12/19 06:57:13;;;;;;;11.40;7.10;;;1.90;99.90;;;;;;4936953;29;20216;-68
2021/12/19 06:59:38;;;;;;;13.20;6.90;;;1.90;99.90;;;;;;4937184;29;20528;-68
2021/12/19 07:02:04;;;;;;;12.13;7.77;;;1.90;99.90;;;;;;4937083;29;20189;-68
2021/12/19 07:04:30;;;;;;;12.93;6.70;;;1.90;99.90;;;;;;4936736;29;20184;-68
2021/12/19 07:06:55;;;;;;;11.23;6.33;;;1.80;99.90;;;;;;4936773;29;20204;-69
2021/12/19 07:09:21;;;;;;;11.63;6.87;;;1.80;99.90;;;;;;4936878;29;20217;-68
2021/12/19 07:11:47;;;;;;;8.80;5.53;;;1.70;99.90;;;;;;4936722;29;20209;-68
2021/12/19 07:14:12;;;;;;;10.33;7.07;;;1.60;99.90;;;;;;4936941;29;20189;-69
2021/12/19 07:16:38;;;;;;;11.20;5.80;;;1.70;99.90;;;;;;4936549;29;20216;-69
2021/12/19 07:19:04;;;;;;;11.10;7.10;;;1.70;99.90;;;;;;4937159;29;20174;-69
2021/12/19 07:21:29;;;;;;;11.77;7.33;;;1.80;99.90;;;;;;4936784;29;20660;-68
2021/12/19 07:23:56;;;;;;;14.77;7.07;;;1.80;99.90;;;;;;4936789;29;20265;-68
2021/12/19 07:26:21;;;;;;;12.17;6.70;;;1.80;99.90;;;;;;4936428;29;20178;-69
2021/12/19 07:28:48;;;;;;;11.13;6.13;;;1.90;99.90;;;;;;4936617;29;20438;-68
2021/12/19 07:31:17;;;;;;;11.97;6.53;;;1.90;99.90;;;;;;4936563;29;20193;-68
2021/12/19 07:33:44;;;;;;;10.90;6.17;;;1.90;99.90;;;;;;4936593;29;20803;-68
2021/12/19 07:36:10;;;;;;;9.90;6.37;;;1.80;99.90;;;;;;4936238;29;20544;-68
2021/12/19 07:38:48;;;;;;;11.20;7.03;;;1.90;99.90;;;;;;4936485;29;20565;-69
2021/12/19 07:41:13;;;;;;;10.50;6.30;;;1.80;99.90;;;;;;4936453;29;20202;-69
2021/12/19 07:43:39;;;;;;;12.70;7.07;;;1.80;99.90;;;;;;4936404;29;20953;-66
2021/12/19 07:46:05;;;;;;;9.40;5.77;;;1.90;99.90;;;;;;4936088;29;20181;-68
2021/12/19 07:48:30;;;;;;;12.97;7.43;;;2.00;99.90;;;;;;4936244;29;20695;-66
2021/12/19 07:50:56;;;;;;;12.80;7.17;;;2.10;99.90;;;;;;4936112;29;20260;-66
2021/12/19 07:53:21;;;;;;;10.53;6.10;;;2.10;99.90;;;;;;4936486;29;20177;-66
2021/12/19 07:55:47;;;;;;;10.87;6.50;;;2.10;99.90;;;;;;4935787;29;20652;-68
2021/12/19 07:58:13;;;;;;;14.07;7.60;;;2.00;99.90;;;;;;4936209;29;20184;-66
2021/12/19 08:00:38;;;;;;;12.23;7.40;;;2.00;99.90;;;;;;4936037;29;20449;-67
2021/12/19 08:03:04;;;;;;;10.70;6.90;;;2.00;99.90;;;;;;4935963;29;20674;-66
2021/12/19 08:05:30;;;;;;;13.20;6.53;;;2.00;99.90;;;;;;4935708;29;20178;-69
2021/12/19 08:08:00;;;;;;;14.57;7.70;;;2.00;99.90;;;;;;4935794;29;20209;-69
2021/12/19 08:12:51;;;;;;;10.97;7.17;;;2.00;99.90;;;;;;4935868;29;20951;-68
2021/12/19 08:15:16;;;;;;;10.43;6.50;;;2.00;99.90;;;;;;4935438;29;20205;-68
2021/12/19 08:17:42;;;;;;;10.07;6.60;;;2.00;99.90;;;;;;4935039;29;20232;-69
2021/12/19 08:20:14;;;;;;;8.80;5.60;;;1.90;99.90;;;;;;4935764;29;20572;-68
2021/12/19 08:22:40;;;;;;;12.50;7.43;;;1.80;99.90;;;;;;4935621;29;20193;-69
2021/12/19 08:25:06;;;;;;;12.90;6.87;;;1.80;99.90;;;;;;4935395;29;20429;-68
2021/12/19 08:27:33;;;;;;;13.03;6.67;;;1.80;99.90;;;;;;4935588;29;20424;-68
2021/12/19 08:29:58;;;;;;;24.13;14.20;;;1.80;99.90;;;;;;4935553;29;20440;-68
2021/12/19 08:32:24;;;;;;;9.23;6.73;;;1.90;99.90;;;;;;4935449;29;20955;-68
2021/12/19 08:34:51;;;;;;;8.87;6.53;;;1.90;99.90;;;;;;4935337;29;20181;-69
2021/12/19 08:37:16;;;;;;;13.33;7.60;;;2.00;99.90;;;;;;4935151;29;20796;-68
2021/12/19 08:39:45;;;;;;;13.20;6.57;;;2.10;99.90;;;;;;4935377;29;20421;-68
2021/12/19 08:42:11;;;;;;;11.60;6.23;;;2.10;99.90;;;;;;4935207;29;20228;-68
2021/12/19 08:44:37;;;;;;;8.83;4.60;;;2.20;99.90;;;;;;4935372;29;20940;-68
2021/12/19 08:47:03;;;;;;;6.80;5.30;;;2.10;99.90;;;;;;4935018;29;20440;-68
2021/12/19 08:49:29;;;;;;;10.60;5.83;;;2.20;99.90;;;;;;4935151;29;20212;-68
2021/12/19 08:51:54;;;;;;;9.07;6.10;;;2.20;99.90;;;;;;4935133;29;20507;-69
2021/12/19 08:54:22;;;;;;;9.20;5.17;;;2.20;99.90;;;;;;4935139;29;20217;-68
2021/12/19 08:56:48;;;;;;;10.17;4.67;;;2.30;99.90;;;;;;4934748;29;20213;-68
2021/12/19 08:59:14;;;;;;;9.43;6.17;;;2.40;99.90;;;;;;4935059;29;20426;-68
2021/12/19 09:01:39;;;;;;;11.27;6.10;;;2.40;99.90;;;;;;4934927;29;20504;-68
2021/12/19 09:04:06;;;;;;;8.60;4.70;;;2.40;99.90;;;;;;4934969;29;20205;-68
2021/12/19 09:06:31;;;;;;;9.33;5.33;;;2.40;99.90;;;;;;4934650;29;20169;-68
2021/12/19 09:08:56;;;;;;;5.60;4.30;;;2.40;99.90;;;;;;4934976;29;20481;-68
2021/12/19 09:11:22;;;;;;;6.30;3.43;;;2.40;99.90;;;;;;4934760;29;20217;-68
2021/12/19 09:13:48;;;;;;;6.37;3.53;;;2.60;99.90;;;;;;4934938;29;20190;-68
2021/12/19 09:16:14;;;;;;;3.80;2.70;;;2.60;99.90;;;;;;4934556;29;20616;-68
2021/12/19 09:18:39;;;;;;;15.67;10.77;;;2.70;99.90;;;;;;4934720;29;20256;-68
2021/12/19 09:21:05;;;;;;;6.50;4.83;;;2.70;99.90;;;;;;4935002;29;20520;-68
2021/12/19 09:23:32;;;;;;;6.60;3.87;;;2.80;99.90;;;;;;4934808;29;20180;-68
2021/12/19 09:25:58;;;;;;;4.53;3.47;;;2.90;99.90;;;;;;4933179;29;20604;-68
2021/12/19 09:28:24;;;;;;;4.67;3.23;;;3.00;99.90;;;;;;4934693;29;20429;-68
2021/12/19 09:30:49;;;;;;;6.40;3.43;;;3.10;99.90;;;;;;4935122;29;20991;-67
2021/12/19 09:33:15;;;;;;;6.50;3.30;;;3.10;99.90;;;;;;4934667;29;20666;-68
2021/12/19 09:35:40;;;;;;;6.80;3.80;;;3.20;99.90;;;;;;4934306;29;20198;-68
2021/12/19 09:38:07;;;;;;;7.10;4.10;;;3.20;99.90;;;;;;4934570;29;20196;-68
2021/12/19 09:40:36;;;;;;;5.40;3.07;;;3.10;99.90;;;;;;4934486;29;20699;-68
2021/12/19 09:43:20;;;;;;;3.93;3.50;;;3.00;99.90;;;;;;4925763;29;20441;-68
2021/12/19 09:45:46;;;;;;;6.03;4.03;;;3.00;99.90;;;;;;4925059;29;20450;-68
2021/12/19 09:48:12;;;;;;;8.70;5.60;;;3.00;99.90;;;;;;4923533;29;20422;-68
2021/12/19 09:50:38;;;;;;;4.33;3.60;;;2.90;99.90;;;;;;4922250;29;20454;-68
2021/12/19 09:53:03;;;;;;;3.80;3.07;;;3.10;99.90;;;;;;4915497;29;20505;-68
2021/12/19 09:55:29;;;;;;;5.60;3.27;;;3.30;99.90;;;;;;4915181;29;20182;-68
2021/12/19 09:57:55;;;;;;;4.40;3.07;;;3.50;99.90;;;;;;4929196;29;20186;-69
2021/12/19 10:00:21;;;;;;;6.60;3.83;;;3.30;99.90;;;;;;4934288;29;20529;-68
2021/12/19 10:02:47;;;;;;;4.20;3.40;;;3.30;99.90;;;;;;4934398;29;20664;-68
2021/12/19 10:05:25;;;;;;;7.10;4.10;;;3.30;99.90;;;;;;4934001;29;20745;-69
2021/12/19 10:07:57;;;;;;;5.70;4.17;;;3.40;99.90;;;;;;4934383;29;20468;-68
2021/12/19 10:10:54;;;;;;;7.70;4.10;;;3.50;99.90;;;;;;4934219;29;20441;-68
2021/12/19 10:13:34;;;;;;;5.33;3.40;;;3.40;99.90;;;;;;4934363;29;20880;-68
2021/12/19 10:16:00;;;;;;;9.00;4.43;;;3.40;99.90;;;;;;4921443;29;20468;-68
2021/12/19 10:18:25;;;;;;;8.17;4.20;;;3.10;99.90;;;;;;4915887;29;20426;-69
2021/12/19 10:20:59;;;;;;;5.53;4.00;;;3.20;99.90;;;;;;4915035;29;20493;-69
2021/12/19 10:23:31;;;;;;;5.33;3.10;;;3.40;99.90;;;;;;4915424;29;20290;-68
2021/12/19 10:26:09;;;;;;;3.63;2.80;;;3.40;99.90;;;;;;4915142;29;20844;-68
2021/12/19 10:28:52;;;;;;;5.23;3.47;;;3.40;99.90;;;;;;4915349;29;20426;-68
2021/12/19 10:31:17;;;;;;;4.90;3.80;;;3.30;99.90;;;;;;4915282;29;20457;-68
2021/12/19 10:33:43;;;;;;;4.80;3.97;;;3.20;99.90;;;;;;4915288;29;20434;-68
2021/12/19 10:36:12;;;;;;;7.20;4.70;;;3.20;99.90;;;;;;4914773;29;20604;-68
2021/12/19 10:38:48;;;;;;;6.03;3.50;;;3.40;99.90;;;;;;4915261;29;20422;-68
2021/12/19 10:41:17;;;;;;;4.70;3.77;;;3.50;99.90;;;;;;4918322;29;20497;-68
2021/12/19 10:45:29;;;;;;;6.00;3.93;;;3.60;99.90;;;;;;4918665;29;20501;-68
2021/12/19 10:46:53;;;;;;;6.13;3.43;;;3.70;99.90;;;;;;4918221;29;20476;-68
2021/12/19 10:49:29;;;;;;;6.57;3.50;;;3.80;99.90;;;;;;4918593;29;20426;-68
2021/12/19 10:52:01;;;;;;;5.03;3.47;;;3.80;99.90;;;;;;4918559;29;20193;-68
2021/12/19 10:54:27;;;;;;;4.20;2.93;;;3.80;99.90;;;;;;4918455;29;20418;-68
2021/12/19 10:57:05;;;;;;;3.90;3.37;;;3.90;99.90;;;;;;4918236;29;20469;-68
2021/12/19 10:59:31;;;;;;;4.77;3.60;;;4.00;99.90;;;;;;4918396;29;20184;-68
2021/12/19 11:01:58;;;;;;;9.57;4.53;;;4.00;99.90;;;;;;4918282;29;20442;-68
2021/12/19 11:04:24;;;;;;;4.87;3.60;;;4.20;99.90;;;;;;4918304;29;20696;-68
2021/12/19 11:07:02;;;;;;;4.13;3.60;;;4.20;99.90;;;;;;4918303;29;20509;-69
2021/12/19 11:09:32;;;;;;;5.40;3.70;;;4.20;99.90;;;;;;4916983;29;21027;-70
2021/12/19 11:12:02;;;;;;;6.33;4.80;;;4.00;99.90;;;;;;4918044;29;20990;-68
2021/12/19 11:14:31;;;;;;;6.10;4.33;;;3.70;99.90;;;;;;4918131;29;20900;-68
2021/12/19 11:17:20;;;;;;;4.50;3.30;;;3.70;99.90;;;;;;4917803;29;20984;-69
2021/12/19 11:19:45;;;;;;;4.47;3.27;;;3.70;99.90;;;;;;4917697;29;20442;-68
2021/12/19 11:22:13;;;;;;;5.93;4.43;;;3.60;99.90;;;;;;4918177;29;20442;-68
2021/12/19 11:24:38;;;;;;;8.70;4.60;;;3.50;99.90;;;;;;4918048;29;20186;-68
2021/12/19 11:27:07;;;;;;;6.10;4.17;;;3.40;99.90;;;;;;4917745;29;20502;-69
2021/12/19 11:29:33;;;;;;;6.83;4.20;;;3.50;99.90;;;;;;4917920;29;20185;-68
2021/12/19 11:32:04;;;;;;;4.90;4.23;;;3.40;99.90;;;;;;4917657;29;20456;-68
2021/12/19 11:35:00;;;;;;;9.30;4.53;;;3.50;99.90;;;;;;4917752;29;20426;-68
2021/12/19 11:37:31;;;;;;;4.30;3.80;;;3.60;99.90;;;;;;4917583;29;20466;-68
2021/12/19 11:39:57;;;;;;;5.93;4.00;;;3.60;99.90;;;;;;4917566;29;20442;-68
2021/12/19 11:42:33;;;;;;;6.77;4.03;;;3.70;99.90;;;;;;4917386;29;20450;-69
2021/12/19 11:47:49;;;;;;;6.80;4.63;;;3.90;99.90;;;;;;4917654;29;20449;-68
2021/12/19 11:50:26;;;;;;;5.83;4.77;;;4.00;99.90;;;;;;4916985;29;20438;-68
2021/12/19 11:53:16;;;;;;;6.37;4.60;;;4.00;99.90;;;;;;4916494;29;20434;-68
2021/12/19 11:55:50;;;;;;;7.90;3.73;;;3.90;99.90;;;;;;4916718;29;20453;-68
2021/12/19 11:58:23;;;;;;;4.70;3.63;;;3.90;99.90;;;;;;4917313;29;20480;-68
2021/12/19 12:01:23;;;;;;;6.13;3.67;;;3.90;99.90;;;;;;4917162;29;20457;-68
2021/12/19 12:03:50;;;;;;;5.07;3.60;;;3.90;99.90;;;;;;4916677;29;20527;-68
2021/12/19 12:06:21;;;;;;;4.87;3.50;;;4.00;99.90;;;;;;4916803;29;20430;-69
2021/12/19 12:09:07;;;;;;;5.03;3.30;;;4.00;99.90;;;;;;4917109;29;20429;-68
2021/12/19 12:11:35;;;;;;;6.47;4.73;;;3.80;99.90;;;;;;4916725;29;20490;-69
2021/12/19 12:14:21;;;;;;;5.90;4.40;;;4.00;99.90;;;;;;4916962;29;20430;-68
2021/12/19 12:16:56;;;;;;;4.57;3.83;;;4.10;99.90;;;;;;4916751;29;20517;-68
2021/12/19 12:19:52;;;;;;;5.07;4.10;;;4.00;99.90;;;;;;4916836;29;20437;-68
2021/12/19 12:22:31;;;;;;;6.03;4.00;;;3.90;99.90;;;;;;4916649;29;20446;-68
2021/12/19 12:25:20;;;;;;;6.73;5.00;;;3.90;99.90;;;;;;4916748;29;20423;-68
2021/12/19 12:27:52;;;;;;;4.70;3.77;;;3.70;99.90;;;;;;4916933;29;20770;-69
2021/12/19 12:30:24;;;;;;;4.80;3.43;;;3.80;99.90;;;;;;4916688;29;20432;-68
2021/12/19 12:32:50;;;;;;;5.50;4.27;;;3.80;99.90;;;;;;4916862;29;20984;-68
2021/12/19 12:35:18;;;;;;;6.10;4.60;;;3.80;99.90;;;;;;4916507;29;20437;-68
2021/12/19 12:37:44;;;;;;;6.67;5.10;;;3.60;99.90;;;;;;4916619;29;20489;-68
2021/12/19 12:40:27;;;;;;;7.03;5.23;;;3.70;99.90;;;;;;4916674;29;20422;-69
2021/12/19 12:43:09;;;;;;;5.73;5.13;;;3.60;99.90;;;;;;4916541;29;20422;-68
2021/12/19 12:46:07;;;;;;;6.70;5.57;;;3.60;99.90;;;;;;4916236;29;20450;-69
2021/12/19 12:48:50;;;;;;;6.43;4.90;;;3.70;99.90;;;;;;4916581;29;20429;-68
2021/12/19 12:51:26;;;;;;;5.43;4.73;;;3.60;99.90;;;;;;4916332;29;20446;-68
2021/12/19 12:53:54;;;;;;;8.20;5.03;;;3.50;99.90;;;;;;4916420;29;20984;-68
2021/12/19 12:56:24;;;;;;;7.20;4.77;;;3.50;99.90;;;;;;4915868;29;20454;-68
2021/12/19 12:58:55;;;;;;;6.80;4.43;;;3.50;99.90;;;;;;4916224;29;20430;-68
2021/12/19 13:01:24;;;;;;;6.87;4.80;;;3.40;99.90;;;;;;4916088;29;20446;-68
2021/12/19 13:04:01;;;;;;;5.20;4.70;;;3.50;99.90;;;;;;4915828;29;20422;-68
2021/12/19 13:06:38;;;;;;;7.73;4.37;;;3.50;99.90;;;;;;4915879;29;20433;-68
2021/12/19 13:09:27;;;;;;;5.63;4.73;;;3.60;99.90;;;;;;4916007;29;20440;-68
2021/12/19 13:12:10;;;;;;;5.73;4.70;;;3.50;99.90;;;;;;4915643;29;20485;-68
2021/12/19 13:14:42;;;;;;;6.67;5.47;;;3.40;99.90;;;;;;4916192;29;20448;-68
2021/12/19 13:17:11;;;;;;;5.97;4.90;;;3.30;99.90;;;;;;4915760;29;20901;-68
2021/12/19 13:20:04;;;;;;;7.47;6.63;;;3.30;99.90;;;;;;4915944;29;20430;-69
2021/12/19 13:22:48;;;;;;;5.67;4.37;;;3.40;99.90;;;;;;4915880;29;20450;-68
2021/12/19 13:25:16;;;;;;;5.77;4.67;;;3.50;99.90;;;;;;4915591;29;20425;-68
2021/12/19 13:27:49;;;;;;;8.50;5.23;;;3.50;99.90;;;;;;4915788;29;20441;-68
2021/12/19 13:30:32;;;;;;;6.07;4.80;;;3.50;99.90;;;;;;4915857;29;20536;-68
2021/12/19 13:32:59;;;;;;;6.97;4.77;;;3.40;99.90;;;;;;4915758;29;20426;-68
2021/12/19 13:35:40;;;;;;;6.47;5.60;;;3.40;99.90;;;;;;4915291;29;20427;-68
2021/12/19 13:38:08;;;;;;;6.57;5.00;;;3.40;99.90;;;;;;4915933;29;20438;-68
2021/12/19 13:40:51;;;;;;;6.57;5.30;;;3.30;99.90;;;;;;4915831;29;20418;-68
2021/12/19 13:43:30;;;;;;;8.07;6.07;;;3.30;99.90;;;;;;4915865;29;20418;-69
2021/12/19 13:45:57;;;;;;;7.77;6.00;;;3.50;99.90;;;;;;4915430;29;20535;-68
2021/12/19 13:48:35;;;;;;;6.73;5.30;;;3.50;99.90;;;;;;4915712;29;20902;-68
2021/12/19 13:51:10;;;;;;;7.60;5.70;;;3.60;99.90;;;;;;4915576;29;20445;-68
2021/12/19 13:53:48;;;;;;;7.00;5.97;;;3.70;99.90;;;;;;4915549;29;20518;-69
2021/12/19 13:56:26;;;;;;;7.73;6.23;;;3.80;99.90;;;;;;4915407;29;20469;-68
2021/12/19 13:59:13;;;;;;;6.93;5.83;;;3.70;99.90;;;;;;4915584;29;20521;-69
2021/12/19 14:01:40;;;;;;;8.50;6.13;;;3.70;99.90;;;;;;4914687;29;20555;-68
2021/12/19 14:04:14;;;;;;;6.53;5.20;;;3.80;99.90;;;;;;4915489;29;20426;-68
2021/12/19 14:06:41;;;;;;;5.70;4.80;;;3.90;99.90;;;;;;4915289;29;20425;-68